sensor_id;sensor_type;location;lat;lon;timestamp;temperature;humidity
19232;DHT22;9750;48.730;10.294;2023-04-29T00:00:44;12.00;99.90
19232;DHT22;9750;48.730;10.294;2023-04-29T00:03:11;12.00;99.90
19232;DHT22;9750;48.730;10.294;2023-04-29T00:05:39;12.00;99.90
19232;DHT22;9750;48.730;10.294;2023-04-29T00:08:06;12.00;99.90
19232;DHT22;9750;48.730;10.294;2023-04-29T00:10:33;12.00;99.90
19232;DHT22;9750;48.730;10.294;2023-04-29T00:13:03;12.00;99.90
19232;DHT22;9750;48.730;10.294;2023-04-29T00:15:30;12.00;99.90
19232;DHT22;9750;48.730;10.294;2023-04-29T00:17:57;12.00;99.90
19232;DHT22;9750;48.730;10.294;2023-04-29T00:20:24;11.90;99.90
19232;DHT22;9750;48.730;10.294;2023-04-29T00:22:52;11.90;99.90
19232;DHT22;9750;48.730;10.294;2023-04-29T00:25:19;11.90;99.90
19232;DHT22;9750;48.730;10.294;2023-04-29T00:27:46;11.90;99.90
19232;DHT22;9750;48.730;10.294;2023-04-29T00:30:15;11.90;99.90
19232;DHT22;9750;48.730;10.294;2023-04-29T00:32:42;11.90;99.90
19232;DHT22;9750;48.730;10.294;2023-04-29T00:35:10;11.90;99.90
19232;DHT22;9750;48.730;10.294;2023-04-29T00:37:37;11.90;99.90
19232;DHT22;9750;48.730;10.294;2023-04-29T00:40:06;11.90;99.90
19232;DHT22;9750;48.730;10.294;2023-04-29T00:42:33;11.90;99.90
19232;DHT22;9750;48.730;10.294;2023-04-29T00:45:01;11.90;99.90
19232;DHT22;9750;48.730;10.294;2023-04-29T00:47:29;11.90;99.90
19232;DHT22;9750;48.730;10.294;2023-04-29T00:49:57;11.90;99.90
19232;DHT22;9750;48.730;10.294;2023-04-29T00:52:24;11.90;99.90
19232;DHT22;9750;48.730;10.294;2023-04-29T00:54:52;11.90;99.90
19232;DHT22;9750;48.730;10.294;2023-04-29T00:57:52;11.90;99.90
19232;DHT22;9750;48.730;10.294;2023-04-29T01:00:19;11.90;99.90
19232;DHT22;9750;48.730;10.294;2023-04-29T01:02:49;11.90;99.90
19232;DHT22;9750;48.730;10.294;2023-04-29T01:05:16;11.80;99.90
19232;DHT22;9750;48.730;10.294;2023-04-29T01:07:51;11.80;99.90
19232;DHT22;9750;48.730;10.294;2023-04-29T01:10:26;11.80;99.90
19232;DHT22;9750;48.730;10.294;2023-04-29T01:13:06;11.80;99.90
19232;DHT22;9750;48.730;10.294;2023-04-29T01:15:38;11.80;99.90
19232;DHT22;9750;48.730;10.294;2023-04-29T01:18:11;11.80;99.90
19232;DHT22;9750;48.730;10.294;2023-04-29T01:20:42;11.90;99.90
19232;DHT22;9750;48.730;10.294;2023-04-29T01:23:10;11.90;99.90
19232;DHT22;9750;48.730;10.294;2023-04-29T01:25:38;11.90;99.90
19232;DHT22;9750;48.730;10.294;2023-04-29T01:28:15;11.90;99.90
19232;DHT22;9750;48.730;10.294;2023-04-29T01:30:49;11.90;99.90
19232;DHT22;9750;48.730;10.294;2023-04-29T01:33:25;11.90;99.90
19232;DHT22;9750;48.730;10.294;2023-04-29T01:36:04;12.00;99.90
19232;DHT22;9750;48.730;10.294;2023-04-29T01:38:38;12.00;99.90
19232;DHT22;9750;48.730;10.294;2023-04-29T01:41:14;12.00;99.90
19232;DHT22;9750;48.730;10.294;2023-04-29T01:43:42;12.00;99.90
19232;DHT22;9750;48.730;10.294;2023-04-29T01:46:15;12.00;99.90
19232;DHT22;9750;48.730;10.294;2023-04-29T01:48:44;12.00;99.90
19232;DHT22;9750;48.730;10.294;2023-04-29T01:51:12;12.00;99.90
19232;DHT22;9750;48.730;10.294;2023-04-29T01:53:39;12.00;99.90
19232;DHT22;9750;48.730;10.294;2023-04-29T01:56:07;12.00;99.90
19232;DHT22;9750;48.730;10.294;2023-04-29T01:58:36;12.00;99.90
19232;DHT22;9750;48.730;10.294;2023-04-29T02:01:03;12.10;99.90
19232;DHT22;9750;48.730;10.294;2023-04-29T02:03:30;12.10;99.90
19232;DHT22;9750;48.730;10.294;2023-04-29T02:05:57;12.10;99.90
19232;DHT22;9750;48.730;10.294;2023-04-29T02:08:25;12.10;99.90
19232;DHT22;9750;48.730;10.294;2023-04-29T02:10:53;12.10;99.90
19232;DHT22;9750;48.730;10.294;2023-04-29T02:13:20;12.00;99.90
19232;DHT22;9750;48.730;10.294;2023-04-29T02:15:49;12.00;99.90
19232;DHT22;9750;48.730;10.294;2023-04-29T02:18:16;12.00;99.90
19232;DHT22;9750;48.730;10.294;2023-04-29T02:20:43;12.00;99.90
19232;DHT22;9750;48.730;10.294;2023-04-29T02:23:10;12.00;99.90
19232;DHT22;9750;48.730;10.294;2023-04-29T02:25:38;12.00;99.90
19232;DHT22;9750;48.730;10.294;2023-04-29T02:28:05;12.10;99.90
19232;DHT22;9750;48.730;10.294;2023-04-29T02:30:32;12.00;99.90
19232;DHT22;9750;48.730;10.294;2023-04-29T02:33:01;12.00;99.90
19232;DHT22;9750;48.730;10.294;2023-04-29T02:35:28;12.00;99.90
19232;DHT22;9750;48.730;10.294;2023-04-29T02:37:56;12.00;99.90
19232;DHT22;9750;48.730;10.294;2023-04-29T02:40:23;12.00;99.90
19232;DHT22;9750;48.730;10.294;2023-04-29T02:42:51;12.00;99.90
19232;DHT22;9750;48.730;10.294;2023-04-29T02:45:19;12.00;99.90
19232;DHT22;9750;48.730;10.294;2023-04-29T02:47:47;12.00;99.90
19232;DHT22;9750;48.730;10.294;2023-04-29T02:50:15;12.00;99.90
19232;DHT22;9750;48.730;10.294;2023-04-29T02:52:43;11.90;99.90
19232;DHT22;9750;48.730;10.294;2023-04-29T02:55:11;12.00;99.90
19232;DHT22;9750;48.730;10.294;2023-04-29T02:57:38;11.90;99.90
19232;DHT22;9750;48.730;10.294;2023-04-29T03:00:07;11.90;99.90
19232;DHT22;9750;48.730;10.294;2023-04-29T03:02:34;11.90;99.90
19232;DHT22;9750;48.730;10.294;2023-04-29T03:05:02;11.90;99.90
19232;DHT22;9750;48.730;10.294;2023-04-29T03:07:31;11.90;99.90
19232;DHT22;9750;48.730;10.294;2023-04-29T03:09:58;11.90;99.90
19232;DHT22;9750;48.730;10.294;2023-04-29T03:12:25;11.90;99.90
19232;DHT22;9750;48.730;10.294;2023-04-29T03:14:52;11.90;99.90
19232;DHT22;9750;48.730;10.294;2023-04-29T03:17:19;11.90;99.90
19232;DHT22;9750;48.730;10.294;2023-04-29T03:19:47;11.90;99.90
19232;DHT22;9750;48.730;10.294;2023-04-29T03:22:14;11.90;99.90
19232;DHT22;9750;48.730;10.294;2023-04-29T03:24:43;11.80;99.90
19232;DHT22;9750;48.730;10.294;2023-04-29T03:27:10;11.80;99.90
19232;DHT22;9750;48.730;10.294;2023-04-29T03:29:37;11.80;99.90
19232;DHT22;9750;48.730;10.294;2023-04-29T03:32:04;11.80;99.90
19232;DHT22;9750;48.730;10.294;2023-04-29T03:34:32;11.80;99.90
19232;DHT22;9750;48.730;10.294;2023-04-29T03:36:59;11.80;99.90
19232;DHT22;9750;48.730;10.294;2023-04-29T03:39:26;11.80;99.90
19232;DHT22;9750;48.730;10.294;2023-04-29T03:41:58;11.70;99.90
19232;DHT22;9750;48.730;10.294;2023-04-29T03:44:26;11.70;99.90
19232;DHT22;9750;48.730;10.294;2023-04-29T03:46:53;11.70;99.90
19232;DHT22;9750;48.730;10.294;2023-04-29T03:49:21;11.70;99.90
19232;DHT22;9750;48.730;10.294;2023-04-29T03:51:48;11.70;99.90
19232;DHT22;9750;48.730;10.294;2023-04-29T03:54:15;11.60;99.90
19232;DHT22;9750;48.730;10.294;2023-04-29T03:56:43;11.60;99.90
19232;DHT22;9750;48.730;10.294;2023-04-29T03:59:11;11.60;99.90
19232;DHT22;9750;48.730;10.294;2023-04-29T04:01:38;11.60;99.90
19232;DHT22;9750;48.730;10.294;2023-04-29T04:04:06;11.60;99.90
19232;DHT22;9750;48.730;10.294;2023-04-29T04:06:33;11.60;99.90
19232;DHT22;9750;48.730;10.294;2023-04-29T04:09:00;11.60;99.90
19232;DHT22;9750;48.730;10.294;2023-04-29T04:11:27;11.60;99.90
19232;DHT22;9750;48.730;10.294;2023-04-29T04:13:55;11.60;99.90
19232;DHT22;9750;48.730;10.294;2023-04-29T04:16:23;11.60;99.90
19232;DHT22;9750;48.730;10.294;2023-04-29T04:18:51;11.60;99.90
19232;DHT22;9750;48.730;10.294;2023-04-29T04:21:18;11.50;99.90
19232;DHT22;9750;48.730;10.294;2023-04-29T04:23:45;11.60;99.90
19232;DHT22;9750;48.730;10.294;2023-04-29T04:26:13;11.60;99.90
19232;DHT22;9750;48.730;10.294;2023-04-29T04:28:40;11.50;99.90
19232;DHT22;9750;48.730;10.294;2023-04-29T04:31:07;11.50;99.90
19232;DHT22;9750;48.730;10.294;2023-04-29T04:33:36;11.60;99.90
19232;DHT22;9750;48.730;10.294;2023-04-29T04:36:03;11.60;99.90
19232;DHT22;9750;48.730;10.294;2023-04-29T04:38:31;11.60;99.90
19232;DHT22;9750;48.730;10.294;2023-04-29T04:40:59;11.60;99.90
19232;DHT22;9750;48.730;10.294;2023-04-29T04:43:27;11.60;99.90
19232;DHT22;9750;48.730;10.294;2023-04-29T04:45:54;11.60;99.90
19232;DHT22;9750;48.730;10.294;2023-04-29T04:48:21;11.60;99.90
19232;DHT22;9750;48.730;10.294;2023-04-29T04:50:50;11.60;99.90
19232;DHT22;9750;48.730;10.294;2023-04-29T04:53:17;11.70;99.90
19232;DHT22;9750;48.730;10.294;2023-04-29T04:55:45;11.70;99.90
19232;DHT22;9750;48.730;10.294;2023-04-29T05:01:35;12.00;99.90
19232;DHT22;9750;48.730;10.294;2023-04-29T05:04:02;12.00;99.90
19232;DHT22;9750;48.730;10.294;2023-04-29T05:06:31;12.10;99.90
19232;DHT22;9750;48.730;10.294;2023-04-29T05:08:58;12.20;99.90
19232;DHT22;9750;48.730;10.294;2023-04-29T05:11:26;12.30;99.90
19232;DHT22;9750;48.730;10.294;2023-04-29T05:13:53;12.40;99.90
19232;DHT22;9750;48.730;10.294;2023-04-29T05:16:20;12.50;99.90
19232;DHT22;9750;48.730;10.294;2023-04-29T05:18:48;12.50;99.90
19232;DHT22;9750;48.730;10.294;2023-04-29T05:21:15;12.60;99.90
19232;DHT22;9750;48.730;10.294;2023-04-29T05:23:43;12.60;99.90
19232;DHT22;9750;48.730;10.294;2023-04-29T05:26:11;12.70;99.90
19232;DHT22;9750;48.730;10.294;2023-04-29T05:28:38;12.70;99.90
19232;DHT22;9750;48.730;10.294;2023-04-29T05:31:05;12.70;99.90
19232;DHT22;9750;48.730;10.294;2023-04-29T05:33:33;12.70;99.90
19232;DHT22;9750;48.730;10.294;2023-04-29T05:36:00;12.80;99.90
19232;DHT22;9750;48.730;10.294;2023-04-29T05:38:27;12.80;99.90
19232;DHT22;9750;48.730;10.294;2023-04-29T05:40:56;12.80;99.90
19232;DHT22;9750;48.730;10.294;2023-04-29T05:43:23;12.90;99.90
19232;DHT22;9750;48.730;10.294;2023-04-29T05:45:52;12.80;99.90
19232;DHT22;9750;48.730;10.294;2023-04-29T05:48:19;12.90;99.90
19232;DHT22;9750;48.730;10.294;2023-04-29T05:50:46;12.90;99.90
19232;DHT22;9750;48.730;10.294;2023-04-29T05:53:14;12.90;99.90
19232;DHT22;9750;48.730;10.294;2023-04-29T05:55:41;12.90;99.90
19232;DHT22;9750;48.730;10.294;2023-04-29T05:58:11;13.00;99.90
19232;DHT22;9750;48.730;10.294;2023-04-29T06:00:39;13.10;99.90
19232;DHT22;9750;48.730;10.294;2023-04-29T06:03:08;13.00;99.90
19232;DHT22;9750;48.730;10.294;2023-04-29T06:05:36;13.00;99.90
19232;DHT22;9750;48.730;10.294;2023-04-29T06:08:03;13.00;99.90
19232;DHT22;9750;48.730;10.294;2023-04-29T06:10:31;13.00;99.90
19232;DHT22;9750;48.730;10.294;2023-04-29T06:12:59;13.10;99.90
19232;DHT22;9750;48.730;10.294;2023-04-29T06:15:27;13.20;99.90
19232;DHT22;9750;48.730;10.294;2023-04-29T06:17:55;13.20;99.90
19232;DHT22;9750;48.730;10.294;2023-04-29T06:20:22;13.20;99.90
19232;DHT22;9750;48.730;10.294;2023-04-29T06:22:49;13.20;99.90
19232;DHT22;9750;48.730;10.294;2023-04-29T06:25:17;13.20;99.90
19232;DHT22;9750;48.730;10.294;2023-04-29T06:27:44;13.10;99.90
19232;DHT22;9750;48.730;10.294;2023-04-29T06:30:12;13.00;99.90
19232;DHT22;9750;48.730;10.294;2023-04-29T06:32:40;13.00;99.90
19232;DHT22;9750;48.730;10.294;2023-04-29T06:35:08;13.00;99.90
19232;DHT22;9750;48.730;10.294;2023-04-29T06:37:35;13.10;99.90
19232;DHT22;9750;48.730;10.294;2023-04-29T06:40:03;13.20;99.90
19232;DHT22;9750;48.730;10.294;2023-04-29T06:42:31;13.20;99.90
19232;DHT22;9750;48.730;10.294;2023-04-29T06:44:58;13.30;99.90
19232;DHT22;9750;48.730;10.294;2023-04-29T06:47:25;13.40;99.90
19232;DHT22;9750;48.730;10.294;2023-04-29T06:49:54;13.40;99.90
19232;DHT22;9750;48.730;10.294;2023-04-29T06:52:21;13.50;99.90
19232;DHT22;9750;48.730;10.294;2023-04-29T06:54:49;13.70;99.90
19232;DHT22;9750;48.730;10.294;2023-04-29T06:57:16;13.80;99.90
19232;DHT22;9750;48.730;10.294;2023-04-29T06:59:43;13.80;99.90
19232;DHT22;9750;48.730;10.294;2023-04-29T07:02:11;13.80;99.90
19232;DHT22;9750;48.730;10.294;2023-04-29T07:04:38;13.80;99.90
19232;DHT22;9750;48.730;10.294;2023-04-29T07:07:07;13.90;99.90
19232;DHT22;9750;48.730;10.294;2023-04-29T07:09:34;13.90;99.90
19232;DHT22;9750;48.730;10.294;2023-04-29T07:12:02;14.00;99.90
19232;DHT22;9750;48.730;10.294;2023-04-29T07:14:29;14.00;99.90
19232;DHT22;9750;48.730;10.294;2023-04-29T07:16:56;14.10;99.90
19232;DHT22;9750;48.730;10.294;2023-04-29T07:19:28;14.20;99.90
19232;DHT22;9750;48.730;10.294;2023-04-29T07:22:00;14.40;99.90
19232;DHT22;9750;48.730;10.294;2023-04-29T07:24:29;14.40;99.90
19232;DHT22;9750;48.730;10.294;2023-04-29T07:26:56;14.30;99.90
19232;DHT22;9750;48.730;10.294;2023-04-29T07:29:23;14.30;99.90
19232;DHT22;9750;48.730;10.294;2023-04-29T07:31:50;14.40;99.90
19232;DHT22;9750;48.730;10.294;2023-04-29T07:34:18;14.30;99.90
19232;DHT22;9750;48.730;10.294;2023-04-29T07:36:45;14.30;99.90
19232;DHT22;9750;48.730;10.294;2023-04-29T07:39:12;14.20;99.90
19232;DHT22;9750;48.730;10.294;2023-04-29T07:41:42;14.30;99.90
19232;DHT22;9750;48.730;10.294;2023-04-29T07:44:09;14.30;99.90
19232;DHT22;9750;48.730;10.294;2023-04-29T07:46:36;14.30;99.90
19232;DHT22;9750;48.730;10.294;2023-04-29T07:49:04;14.30;99.90
19232;DHT22;9750;48.730;10.294;2023-04-29T07:51:31;14.30;99.90
19232;DHT22;9750;48.730;10.294;2023-04-29T07:53:58;14.20;99.90
19232;DHT22;9750;48.730;10.294;2023-04-29T07:56:26;14.20;99.90
19232;DHT22;9750;48.730;10.294;2023-04-29T07:58:54;14.30;99.90
19232;DHT22;9750;48.730;10.294;2023-04-29T08:01:22;14.40;99.90
19232;DHT22;9750;48.730;10.294;2023-04-29T08:03:49;14.60;99.90
19232;DHT22;9750;48.730;10.294;2023-04-29T08:06:16;14.70;99.90
19232;DHT22;9750;48.730;10.294;2023-04-29T08:08:47;14.60;99.90
19232;DHT22;9750;48.730;10.294;2023-04-29T08:11:18;14.60;99.90
19232;DHT22;9750;48.730;10.294;2023-04-29T08:13:45;14.60;99.90
19232;DHT22;9750;48.730;10.294;2023-04-29T08:16:14;14.60;99.90
19232;DHT22;9750;48.730;10.294;2023-04-29T08:18:41;14.50;99.90
19232;DHT22;9750;48.730;10.294;2023-04-29T08:21:08;14.40;99.90
19232;DHT22;9750;48.730;10.294;2023-04-29T08:23:36;14.40;99.90
19232;DHT22;9750;48.730;10.294;2023-04-29T08:26:06;14.40;99.90
19232;DHT22;9750;48.730;10.294;2023-04-29T08:28:35;14.30;99.90
19232;DHT22;9750;48.730;10.294;2023-04-29T08:31:02;14.30;99.90
19232;DHT22;9750;48.730;10.294;2023-04-29T08:33:33;14.30;99.90
19232;DHT22;9750;48.730;10.294;2023-04-29T08:36:01;14.50;99.90
19232;DHT22;9750;48.730;10.294;2023-04-29T08:38:29;14.60;99.90
19232;DHT22;9750;48.730;10.294;2023-04-29T08:41:00;14.60;99.90
19232;DHT22;9750;48.730;10.294;2023-04-29T08:43:28;14.50;99.90
19232;DHT22;9750;48.730;10.294;2023-04-29T08:45:57;14.50;99.90
19232;DHT22;9750;48.730;10.294;2023-04-29T08:48:26;14.40;99.90
19232;DHT22;9750;48.730;10.294;2023-04-29T08:50:55;14.40;99.90
19232;DHT22;9750;48.730;10.294;2023-04-29T08:53:23;14.40;99.80
19232;DHT22;9750;48.730;10.294;2023-04-29T08:55:50;14.50;99.90
19232;DHT22;9750;48.730;10.294;2023-04-29T08:58:18;14.50;99.60
19232;DHT22;9750;48.730;10.294;2023-04-29T09:00:46;14.50;99.00
19232;DHT22;9750;48.730;10.294;2023-04-29T09:03:21;14.40;99.30
19232;DHT22;9750;48.730;10.294;2023-04-29T09:05:54;14.30;99.30
19232;DHT22;9750;48.730;10.294;2023-04-29T09:11:44;14.20;99.10
19232;DHT22;9750;48.730;10.294;2023-04-29T09:14:12;14.20;99.80
19232;DHT22;9750;48.730;10.294;2023-04-29T09:16:40;14.30;99.60
19232;DHT22;9750;48.730;10.294;2023-04-29T09:19:08;14.30;99.30
19232;DHT22;9750;48.730;10.294;2023-04-29T09:21:36;14.40;98.50
19232;DHT22;9750;48.730;10.294;2023-04-29T09:24:04;14.40;99.10
19232;DHT22;9750;48.730;10.294;2023-04-29T09:26:40;14.60;99.40
19232;DHT22;9750;48.730;10.294;2023-04-29T09:29:09;14.70;99.00
19232;DHT22;9750;48.730;10.294;2023-04-29T09:31:38;14.70;98.60
19232;DHT22;9750;48.730;10.294;2023-04-29T09:34:07;14.80;99.40
19232;DHT22;9750;48.730;10.294;2023-04-29T09:36:37;14.90;98.40
19232;DHT22;9750;48.730;10.294;2023-04-29T09:39:04;15.00;98.00
19232;DHT22;9750;48.730;10.294;2023-04-29T09:41:40;15.00;97.50
19232;DHT22;9750;48.730;10.294;2023-04-29T09:44:08;15.10;97.50
19232;DHT22;9750;48.730;10.294;2023-04-29T09:46:56;15.10;97.70
19232;DHT22;9750;48.730;10.294;2023-04-29T09:52:59;15.10;97.10
19232;DHT22;9750;48.730;10.294;2023-04-29T09:55:26;15.10;98.00
19232;DHT22;9750;48.730;10.294;2023-04-29T09:57:54;15.10;97.50
19232;DHT22;9750;48.730;10.294;2023-04-29T10:00:22;15.20;97.70
19232;DHT22;9750;48.730;10.294;2023-04-29T10:02:49;15.30;96.80
19232;DHT22;9750;48.730;10.294;2023-04-29T10:05:18;15.30;97.00
19232;DHT22;9750;48.730;10.294;2023-04-29T10:07:45;15.20;97.50
19232;DHT22;9750;48.730;10.294;2023-04-29T10:10:15;15.20;97.40
19232;DHT22;9750;48.730;10.294;2023-04-29T10:12:43;15.10;96.10
19232;DHT22;9750;48.730;10.294;2023-04-29T10:15:19;15.00;96.10
19232;DHT22;9750;48.730;10.294;2023-04-29T10:17:51;15.00;97.20
19232;DHT22;9750;48.730;10.294;2023-04-29T10:20:22;15.10;97.50
19232;DHT22;9750;48.730;10.294;2023-04-29T10:22:50;15.20;97.20
19232;DHT22;9750;48.730;10.294;2023-04-29T10:25:22;15.30;97.60
19232;DHT22;9750;48.730;10.294;2023-04-29T10:27:50;15.50;96.90
19232;DHT22;9750;48.730;10.294;2023-04-29T10:30:19;15.50;96.60
19232;DHT22;9750;48.730;10.294;2023-04-29T10:32:48;15.60;97.20
19232;DHT22;9750;48.730;10.294;2023-04-29T10:35:17;15.50;97.50
19232;DHT22;9750;48.730;10.294;2023-04-29T10:37:46;15.40;97.10
19232;DHT22;9750;48.730;10.294;2023-04-29T10:40:16;15.30;97.30
19232;DHT22;9750;48.730;10.294;2023-04-29T10:42:48;15.10;96.90
19232;DHT22;9750;48.730;10.294;2023-04-29T10:45:23;14.90;96.70
19232;DHT22;9750;48.730;10.294;2023-04-29T10:48:10;14.90;96.90
19232;DHT22;9750;48.730;10.294;2023-04-29T10:50:59;15.00;96.40
19232;DHT22;9750;48.730;10.294;2023-04-29T10:53:27;15.00;96.40
19232;DHT22;9750;48.730;10.294;2023-04-29T10:56:07;15.00;97.00
19232;DHT22;9750;48.730;10.294;2023-04-29T10:58:39;15.20;96.70
19232;DHT22;9750;48.730;10.294;2023-04-29T11:01:09;15.20;96.30
19232;DHT22;9750;48.730;10.294;2023-04-29T11:03:48;15.20;96.60
19232;DHT22;9750;48.730;10.294;2023-04-29T11:06:19;15.20;96.00
19232;DHT22;9750;48.730;10.294;2023-04-29T11:08:59;15.20;96.10
19232;DHT22;9750;48.730;10.294;2023-04-29T11:11:46;15.10;96.50
19232;DHT22;9750;48.730;10.294;2023-04-29T11:14:20;15.10;96.50
19232;DHT22;9750;48.730;10.294;2023-04-29T11:16:52;15.00;96.80
19232;DHT22;9750;48.730;10.294;2023-04-29T11:19:20;15.10;96.40
19232;DHT22;9750;48.730;10.294;2023-04-29T11:22:10;15.10;96.40
19232;DHT22;9750;48.730;10.294;2023-04-29T11:24:51;15.20;97.00
19232;DHT22;9750;48.730;10.294;2023-04-29T11:30:42;15.20;97.00
19232;DHT22;9750;48.730;10.294;2023-04-29T11:33:11;15.20;96.40
19232;DHT22;9750;48.730;10.294;2023-04-29T11:35:39;15.10;96.50
19232;DHT22;9750;48.730;10.294;2023-04-29T11:38:08;15.10;96.40
19232;DHT22;9750;48.730;10.294;2023-04-29T11:40:40;15.20;96.20
19232;DHT22;9750;48.730;10.294;2023-04-29T11:43:08;15.20;95.80
19232;DHT22;9750;48.730;10.294;2023-04-29T11:45:35;15.20;96.40
19232;DHT22;9750;48.730;10.294;2023-04-29T11:48:04;15.30;96.30
19232;DHT22;9750;48.730;10.294;2023-04-29T11:50:32;15.30;95.00
19232;DHT22;9750;48.730;10.294;2023-04-29T11:53:04;15.30;95.50
19232;DHT22;9750;48.730;10.294;2023-04-29T11:55:31;15.30;96.30
19232;DHT22;9750;48.730;10.294;2023-04-29T11:57:59;15.30;95.70
19232;DHT22;9750;48.730;10.294;2023-04-29T12:00:26;15.30;95.70
19232;DHT22;9750;48.730;10.294;2023-04-29T12:02:53;15.30;95.70
19232;DHT22;9750;48.730;10.294;2023-04-29T12:05:24;15.30;95.60
19232;DHT22;9750;48.730;10.294;2023-04-29T12:07:53;15.40;95.90
19232;DHT22;9750;48.730;10.294;2023-04-29T12:10:21;15.50;95.50
19232;DHT22;9750;48.730;10.294;2023-04-29T12:12:48;15.60;94.70
19232;DHT22;9750;48.730;10.294;2023-04-29T12:15:16;15.70;94.70
19232;DHT22;9750;48.730;10.294;2023-04-29T12:17:43;15.70;95.00
19232;DHT22;9750;48.730;10.294;2023-04-29T12:20:12;15.80;94.20
19232;DHT22;9750;48.730;10.294;2023-04-29T12:22:41;15.80;94.30
19232;DHT22;9750;48.730;10.294;2023-04-29T12:25:09;15.90;95.20
19232;DHT22;9750;48.730;10.294;2023-04-29T12:27:39;15.90;94.80
19232;DHT22;9750;48.730;10.294;2023-04-29T12:30:08;15.90;94.60
19232;DHT22;9750;48.730;10.294;2023-04-29T12:32:36;15.90;93.90
19232;DHT22;9750;48.730;10.294;2023-04-29T12:35:04;16.00;93.80
19232;DHT22;9750;48.730;10.294;2023-04-29T12:37:32;15.90;94.10
19232;DHT22;9750;48.730;10.294;2023-04-29T12:40:01;16.00;94.30
19232;DHT22;9750;48.730;10.294;2023-04-29T12:42:31;16.00;93.60
19232;DHT22;9750;48.730;10.294;2023-04-29T12:44:59;16.10;94.10
19232;DHT22;9750;48.730;10.294;2023-04-29T12:47:31;16.10;93.80
19232;DHT22;9750;48.730;10.294;2023-04-29T12:50:00;16.20;93.80
19232;DHT22;9750;48.730;10.294;2023-04-29T12:52:27;16.20;93.80
19232;DHT22;9750;48.730;10.294;2023-04-29T12:54:56;16.20;94.10
19232;DHT22;9750;48.730;10.294;2023-04-29T12:57:27;16.20;94.60
19232;DHT22;9750;48.730;10.294;2023-04-29T12:59:54;16.30;93.80
19232;DHT22;9750;48.730;10.294;2023-04-29T13:02:21;16.30;93.80
19232;DHT22;9750;48.730;10.294;2023-04-29T13:04:49;16.30;93.10
19232;DHT22;9750;48.730;10.294;2023-04-29T13:07:16;16.30;93.10
19232;DHT22;9750;48.730;10.294;2023-04-29T13:09:44;16.40;93.40
19232;DHT22;9750;48.730;10.294;2023-04-29T13:12:11;16.60;93.50
19232;DHT22;9750;48.730;10.294;2023-04-29T13:14:39;16.60;93.60
19232;DHT22;9750;48.730;10.294;2023-04-29T13:17:07;16.70;94.00
19232;DHT22;9750;48.730;10.294;2023-04-29T13:19:34;16.70;93.70
19232;DHT22;9750;48.730;10.294;2023-04-29T13:22:02;16.80;93.60
19232;DHT22;9750;48.730;10.294;2023-04-29T13:24:29;16.80;93.70
19232;DHT22;9750;48.730;10.294;2023-04-29T13:26:57;16.90;93.70
19232;DHT22;9750;48.730;10.294;2023-04-29T13:29:26;16.80;92.80
19232;DHT22;9750;48.730;10.294;2023-04-29T13:31:54;16.80;93.40
19232;DHT22;9750;48.730;10.294;2023-04-29T13:34:22;16.90;93.40
19232;DHT22;9750;48.730;10.294;2023-04-29T13:36:49;16.90;93.40
19232;DHT22;9750;48.730;10.294;2023-04-29T13:39:16;17.10;93.00
19232;DHT22;9750;48.730;10.294;2023-04-29T13:41:45;17.10;92.70
19232;DHT22;9750;48.730;10.294;2023-04-29T13:44:13;17.10;93.30
19232;DHT22;9750;48.730;10.294;2023-04-29T13:46:40;17.10;92.90
19232;DHT22;9750;48.730;10.294;2023-04-29T13:49:09;17.00;93.10
19232;DHT22;9750;48.730;10.294;2023-04-29T13:51:36;16.90;92.80
19232;DHT22;9750;48.730;10.294;2023-04-29T13:54:03;16.70;93.10
19232;DHT22;9750;48.730;10.294;2023-04-29T13:56:30;16.60;93.40
19232;DHT22;9750;48.730;10.294;2023-04-29T13:58:58;16.60;94.50
19232;DHT22;9750;48.730;10.294;2023-04-29T14:01:25;16.60;93.90
19232;DHT22;9750;48.730;10.294;2023-04-29T14:03:52;16.60;93.90
19232;DHT22;9750;48.730;10.294;2023-04-29T14:06:21;16.50;94.80
19232;DHT22;9750;48.730;10.294;2023-04-29T14:08:48;16.50;94.80
19232;DHT22;9750;48.730;10.294;2023-04-29T14:11:15;16.60;94.10
19232;DHT22;9750;48.730;10.294;2023-04-29T14:13:44;16.60;93.70
19232;DHT22;9750;48.730;10.294;2023-04-29T14:16:11;16.60;93.20
19232;DHT22;9750;48.730;10.294;2023-04-29T14:18:38;16.60;93.80
19232;DHT22;9750;48.730;10.294;2023-04-29T14:21:06;16.60;93.90
19232;DHT22;9750;48.730;10.294;2023-04-29T14:23:34;16.60;94.30
19232;DHT22;9750;48.730;10.294;2023-04-29T14:26:01;16.70;94.00
19232;DHT22;9750;48.730;10.294;2023-04-29T14:28:29;16.60;93.80
19232;DHT22;9750;48.730;10.294;2023-04-29T14:30:56;16.60;93.80
19232;DHT22;9750;48.730;10.294;2023-04-29T14:33:23;16.50;93.50
19232;DHT22;9750;48.730;10.294;2023-04-29T14:35:51;16.40;93.80
19232;DHT22;9750;48.730;10.294;2023-04-29T14:38:18;16.30;93.80
19232;DHT22;9750;48.730;10.294;2023-04-29T14:40:47;16.30;94.10
19232;DHT22;9750;48.730;10.294;2023-04-29T14:43:14;16.30;93.90
19232;DHT22;9750;48.730;10.294;2023-04-29T14:45:41;16.20;94.00
19232;DHT22;9750;48.730;10.294;2023-04-29T14:48:08;16.10;94.30
19232;DHT22;9750;48.730;10.294;2023-04-29T14:50:36;16.10;94.40
19232;DHT22;9750;48.730;10.294;2023-04-29T14:53:03;15.90;94.00
19232;DHT22;9750;48.730;10.294;2023-04-29T14:55:32;15.80;93.80
19232;DHT22;9750;48.730;10.294;2023-04-29T14:58:00;15.80;93.70
19232;DHT22;9750;48.730;10.294;2023-04-29T15:00:29;15.90;93.30
19232;DHT22;9750;48.730;10.294;2023-04-29T15:02:56;15.80;93.50
19232;DHT22;9750;48.730;10.294;2023-04-29T15:05:24;15.90;93.80
19232;DHT22;9750;48.730;10.294;2023-04-29T15:07:51;16.00;93.70
19232;DHT22;9750;48.730;10.294;2023-04-29T15:10:19;16.00;93.00
19232;DHT22;9750;48.730;10.294;2023-04-29T15:12:46;15.90;93.30
19232;DHT22;9750;48.730;10.294;2023-04-29T15:15:15;15.80;94.00
19232;DHT22;9750;48.730;10.294;2023-04-29T15:17:42;15.70;93.90
19232;DHT22;9750;48.730;10.294;2023-04-29T15:20:11;15.60;94.00
19232;DHT22;9750;48.730;10.294;2023-04-29T15:22:38;15.50;94.20
19232;DHT22;9750;48.730;10.294;2023-04-29T15:25:06;15.40;93.70
19232;DHT22;9750;48.730;10.294;2023-04-29T15:27:34;15.30;94.10
19232;DHT22;9750;48.730;10.294;2023-04-29T15:30:01;15.20;94.60
19232;DHT22;9750;48.730;10.294;2023-04-29T15:32:30;15.20;94.90
19232;DHT22;9750;48.730;10.294;2023-04-29T15:34:58;15.20;95.10
19232;DHT22;9750;48.730;10.294;2023-04-29T15:37:25;15.10;95.20
19232;DHT22;9750;48.730;10.294;2023-04-29T15:39:53;15.20;95.40
19232;DHT22;9750;48.730;10.294;2023-04-29T15:42:20;15.10;95.60
19232;DHT22;9750;48.730;10.294;2023-04-29T15:44:47;15.20;95.70
19232;DHT22;9750;48.730;10.294;2023-04-29T15:47:15;15.20;95.50
19232;DHT22;9750;48.730;10.294;2023-04-29T15:49:43;15.20;95.40
19232;DHT22;9750;48.730;10.294;2023-04-29T15:52:11;15.30;95.50